sensor_id;sensor_type;location;lat;lon;timestamp;P1;durP1;ratioP1;P2;durP2;ratioP2
44197;SDS011;30157;55.512;37.764;2022-08-27T00:00:25;15.25;;;11.35;;
44197;SDS011;30157;55.512;37.764;2022-08-27T00:02:52;17.80;;;12.82;;
44197;SDS011;30157;55.512;37.764;2022-08-27T00:05:18;17.08;;;12.25;;
44197;SDS011;30157;55.512;37.764;2022-08-27T00:07:44;17.05;;;12.23;;
44197;SDS011;30157;55.512;37.764;2022-08-27T00:10:12;15.43;;;11.02;;
44197;SDS011;30157;55.512;37.764;2022-08-27T00:12:40;14.25;;;11.02;;
44197;SDS011;30157;55.512;37.764;2022-08-27T00:15:06;16.23;;;11.95;;
44197;SDS011;30157;55.512;37.764;2022-08-27T00:17:32;18.00;;;12.05;;
44197;SDS011;30157;55.512;37.764;2022-08-27T00:19:59;15.23;;;11.68;;
44197;SDS011;30157;55.512;37.764;2022-08-27T00:22:26;15.63;;;12.10;;
44197;SDS011;30157;55.512;37.764;2022-08-27T00:24:52;15.60;;;11.73;;
44197;SDS011;30157;55.512;37.764;2022-08-27T00:27:17;16.95;;;13.27;;
44197;SDS011;30157;55.512;37.764;2022-08-27T00:29:43;15.52;;;11.65;;
44197;SDS011;30157;55.512;37.764;2022-08-27T00:32:10;17.23;;;11.93;;
44197;SDS011;30157;55.512;37.764;2022-08-27T00:34:36;14.85;;;11.48;;
44197;SDS011;30157;55.512;37.764;2022-08-27T00:37:06;17.35;;;12.02;;
44197;SDS011;30157;55.512;37.764;2022-08-27T00:39:32;13.75;;;10.48;;
44197;SDS011;30157;55.512;37.764;2022-08-27T00:41:58;18.50;;;12.50;;
44197;SDS011;30157;55.512;37.764;2022-08-27T00:44:25;14.77;;;11.48;;
44197;SDS011;30157;55.512;37.764;2022-08-27T00:46:55;18.00;;;12.60;;
44197;SDS011;30157;55.512;37.764;2022-08-27T00:49:47;15.52;;;12.50;;
44197;SDS011;30157;55.512;37.764;2022-08-27T00:52:25;15.90;;;12.48;;
44197;SDS011;30157;55.512;37.764;2022-08-27T00:55:00;16.33;;;12.25;;
44197;SDS011;30157;55.512;37.764;2022-08-27T00:57:38;17.30;;;12.77;;
44197;SDS011;30157;55.512;37.764;2022-08-27T01:00:11;18.40;;;10.88;;
44197;SDS011;30157;55.512;37.764;2022-08-27T01:02:39;15.52;;;11.50;;
44197;SDS011;30157;55.512;37.764;2022-08-27T01:05:07;15.23;;;11.27;;
44197;SDS011;30157;55.512;37.764;2022-08-27T01:07:35;17.17;;;12.05;;
44197;SDS011;30157;55.512;37.764;2022-08-27T01:10:06;15.68;;;13.27;;
44197;SDS011;30157;55.512;37.764;2022-08-27T01:12:37;17.45;;;12.93;;
44197;SDS011;30157;55.512;37.764;2022-08-27T01:15:04;16.83;;;11.98;;
44197;SDS011;30157;55.512;37.764;2022-08-27T01:17:35;14.95;;;12.35;;
44197;SDS011;30157;55.512;37.764;2022-08-27T01:20:03;17.42;;;13.43;;
44197;SDS011;30157;55.512;37.764;2022-08-27T01:25:24;15.93;;;10.63;;
44197;SDS011;30157;55.512;37.764;2022-08-27T01:27:50;16.63;;;11.80;;
44197;SDS011;30157;55.512;37.764;2022-08-27T01:30:19;16.55;;;11.70;;
44197;SDS011;30157;55.512;37.764;2022-08-27T01:32:46;16.48;;;12.38;;
44197;SDS011;30157;55.512;37.764;2022-08-27T01:35:13;14.73;;;10.93;;
44197;SDS011;30157;55.512;37.764;2022-08-27T01:37:40;15.43;;;11.93;;
44197;SDS011;30157;55.512;37.764;2022-08-27T01:40:07;18.38;;;13.02;;
44197;SDS011;30157;55.512;37.764;2022-08-27T01:42:35;15.45;;;12.57;;
44197;SDS011;30157;55.512;37.764;2022-08-27T01:45:06;17.38;;;12.13;;
44197;SDS011;30157;55.512;37.764;2022-08-27T01:47:40;17.70;;;12.32;;
44197;SDS011;30157;55.512;37.764;2022-08-27T01:50:08;18.95;;;12.30;;
44197;SDS011;30157;55.512;37.764;2022-08-27T01:52:40;16.10;;;12.27;;
44197;SDS011;30157;55.512;37.764;2022-08-27T01:55:06;15.23;;;10.85;;
44197;SDS011;30157;55.512;37.764;2022-08-27T01:57:34;17.42;;;12.13;;
44197;SDS011;30157;55.512;37.764;2022-08-27T02:00:07;15.25;;;11.73;;
44197;SDS011;30157;55.512;37.764;2022-08-27T02:02:39;14.73;;;11.25;;
44197;SDS011;30157;55.512;37.764;2022-08-27T02:05:06;15.50;;;12.73;;
44197;SDS011;30157;55.512;37.764;2022-08-27T02:07:32;15.73;;;12.60;;
44197;SDS011;30157;55.512;37.764;2022-08-27T02:09:58;17.10;;;12.25;;
44197;SDS011;30157;55.512;37.764;2022-08-27T02:12:24;15.00;;;12.35;;
44197;SDS011;30157;55.512;37.764;2022-08-27T02:14:49;15.90;;;12.45;;
44197;SDS011;30157;55.512;37.764;2022-08-27T02:17:16;15.38;;;10.75;;
44197;SDS011;30157;55.512;37.764;2022-08-27T02:19:41;15.30;;;10.43;;
44197;SDS011;30157;55.512;37.764;2022-08-27T02:22:07;17.38;;;12.70;;
44197;SDS011;30157;55.512;37.764;2022-08-27T02:24:33;16.20;;;10.10;;
44197;SDS011;30157;55.512;37.764;2022-08-27T02:26:58;17.15;;;12.07;;
44197;SDS011;30157;55.512;37.764;2022-08-27T02:29:24;17.85;;;13.20;;
44197;SDS011;30157;55.512;37.764;2022-08-27T02:31:50;16.50;;;12.25;;
44197;SDS011;30157;55.512;37.764;2022-08-27T02:34:16;17.17;;;11.43;;
44197;SDS011;30157;55.512;37.764;2022-08-27T02:36:42;14.05;;;12.05;;
44197;SDS011;30157;55.512;37.764;2022-08-27T02:39:08;14.82;;;11.63;;
44197;SDS011;30157;55.512;37.764;2022-08-27T02:41:34;16.92;;;12.70;;
44197;SDS011;30157;55.512;37.764;2022-08-27T02:44:00;17.13;;;13.63;;
44197;SDS011;30157;55.512;37.764;2022-08-27T02:46:27;15.55;;;12.80;;
44197;SDS011;30157;55.512;37.764;2022-08-27T02:48:53;18.02;;;13.50;;
44197;SDS011;30157;55.512;37.764;2022-08-27T02:51:19;18.10;;;14.15;;
44197;SDS011;30157;55.512;37.764;2022-08-27T02:53:45;18.52;;;14.77;;
44197;SDS011;30157;55.512;37.764;2022-08-27T02:56:10;20.15;;;15.07;;
44197;SDS011;30157;55.512;37.764;2022-08-27T02:58:36;17.40;;;14.90;;
44197;SDS011;30157;55.512;37.764;2022-08-27T03:01:05;24.33;;;17.00;;
44197;SDS011;30157;55.512;37.764;2022-08-27T03:03:31;22.60;;;17.08;;
44197;SDS011;30157;55.512;37.764;2022-08-27T03:05:57;20.67;;;15.98;;
44197;SDS011;30157;55.512;37.764;2022-08-27T03:08:24;19.83;;;14.77;;
44197;SDS011;30157;55.512;37.764;2022-08-27T03:10:53;17.70;;;12.80;;
44197;SDS011;30157;55.512;37.764;2022-08-27T03:13:21;21.17;;;15.95;;
44197;SDS011;30157;55.512;37.764;2022-08-27T03:15:47;19.83;;;15.27;;
44197;SDS011;30157;55.512;37.764;2022-08-27T03:18:13;20.45;;;15.32;;
44197;SDS011;30157;55.512;37.764;2022-08-27T03:20:47;19.08;;;13.82;;
44197;SDS011;30157;55.512;37.764;2022-08-27T03:23:18;21.08;;;15.27;;
44197;SDS011;30157;55.512;37.764;2022-08-27T03:25:53;19.08;;;14.15;;
44197;SDS011;30157;55.512;37.764;2022-08-27T03:28:22;18.05;;;13.07;;
44197;SDS011;30157;55.512;37.764;2022-08-27T03:30:53;18.30;;;14.13;;
44197;SDS011;30157;55.512;37.764;2022-08-27T03:33:26;20.60;;;13.48;;
44197;SDS011;30157;55.512;37.764;2022-08-27T03:35:53;18.08;;;13.40;;
44197;SDS011;30157;55.512;37.764;2022-08-27T03:38:19;21.77;;;15.10;;
44197;SDS011;30157;55.512;37.764;2022-08-27T03:40:46;19.15;;;14.25;;
44197;SDS011;30157;55.512;37.764;2022-08-27T03:43:13;17.00;;;13.18;;
44197;SDS011;30157;55.512;37.764;2022-08-27T03:45:41;16.52;;;12.57;;
44197;SDS011;30157;55.512;37.764;2022-08-27T03:48:08;17.13;;;13.57;;
44197;SDS011;30157;55.512;37.764;2022-08-27T03:50:36;20.23;;;14.05;;
44197;SDS011;30157;55.512;37.764;2022-08-27T03:53:05;18.35;;;13.10;;
44197;SDS011;30157;55.512;37.764;2022-08-27T03:55:31;17.40;;;12.57;;
44197;SDS011;30157;55.512;37.764;2022-08-27T03:57:57;17.80;;;13.00;;
44197;SDS011;30157;55.512;37.764;2022-08-27T04:00:23;17.10;;;13.68;;
44197;SDS011;30157;55.512;37.764;2022-08-27T04:02:50;15.98;;;12.85;;
44197;SDS011;30157;55.512;37.764;2022-08-27T04:05:16;17.67;;;14.18;;
44197;SDS011;30157;55.512;37.764;2022-08-27T04:07:42;17.52;;;13.55;;
44197;SDS011;30157;55.512;37.764;2022-08-27T04:10:08;21.23;;;16.58;;
44197;SDS011;30157;55.512;37.764;2022-08-27T04:12:36;22.90;;;16.75;;
44197;SDS011;30157;55.512;37.764;2022-08-27T04:15:03;15.82;;;13.32;;
44197;SDS011;30157;55.512;37.764;2022-08-27T04:17:30;16.33;;;13.10;;
44197;SDS011;30157;55.512;37.764;2022-08-27T04:19:56;18.63;;;14.60;;
44197;SDS011;30157;55.512;37.764;2022-08-27T04:22:24;21.10;;;16.80;;
44197;SDS011;30157;55.512;37.764;2022-08-27T04:24:50;18.98;;;14.40;;
44197;SDS011;30157;55.512;37.764;2022-08-27T04:27:16;20.13;;;14.70;;
44197;SDS011;30157;55.512;37.764;2022-08-27T04:29:42;23.85;;;15.52;;
44197;SDS011;30157;55.512;37.764;2022-08-27T04:32:09;18.35;;;15.23;;
44197;SDS011;30157;55.512;37.764;2022-08-27T04:34:35;19.13;;;15.77;;
44197;SDS011;30157;55.512;37.764;2022-08-27T04:37:01;21.88;;;16.40;;
44197;SDS011;30157;55.512;37.764;2022-08-27T04:39:28;20.00;;;15.13;;
44197;SDS011;30157;55.512;37.764;2022-08-27T04:41:55;18.73;;;14.80;;
44197;SDS011;30157;55.512;37.764;2022-08-27T04:44:24;17.88;;;13.85;;
44197;SDS011;30157;55.512;37.764;2022-08-27T04:46:55;19.95;;;15.82;;
44197;SDS011;30157;55.512;37.764;2022-08-27T04:49:23;18.27;;;14.05;;
44197;SDS011;30157;55.512;37.764;2022-08-27T04:51:50;17.98;;;14.80;;
44197;SDS011;30157;55.512;37.764;2022-08-27T04:54:16;17.90;;;14.10;;
44197;SDS011;30157;55.512;37.764;2022-08-27T04:56:41;19.50;;;15.32;;
44197;SDS011;30157;55.512;37.764;2022-08-27T04:59:10;18.00;;;15.68;;
44197;SDS011;30157;55.512;37.764;2022-08-27T05:01:39;18.70;;;14.93;;
44197;SDS011;30157;55.512;37.764;2022-08-27T05:04:06;18.52;;;15.02;;
44197;SDS011;30157;55.512;37.764;2022-08-27T05:06:33;19.02;;;15.05;;
44197;SDS011;30157;55.512;37.764;2022-08-27T05:08:59;20.73;;;15.80;;
44197;SDS011;30157;55.512;37.764;2022-08-27T05:11:25;18.15;;;15.38;;
44197;SDS011;30157;55.512;37.764;2022-08-27T05:14:04;21.55;;;15.48;;
44197;SDS011;30157;55.512;37.764;2022-08-27T05:16:32;21.77;;;15.15;;
44197;SDS011;30157;55.512;37.764;2022-08-27T05:19:00;20.23;;;15.05;;
44197;SDS011;30157;55.512;37.764;2022-08-27T05:21:29;18.35;;;14.13;;
44197;SDS011;30157;55.512;37.764;2022-08-27T05:23:58;20.00;;;16.17;;
44197;SDS011;30157;55.512;37.764;2022-08-27T05:26:25;20.02;;;15.32;;
44197;SDS011;30157;55.512;37.764;2022-08-27T05:28:52;19.83;;;15.93;;
44197;SDS011;30157;55.512;37.764;2022-08-27T05:31:21;20.35;;;17.00;;
44197;SDS011;30157;55.512;37.764;2022-08-27T05:33:46;18.80;;;15.82;;
44197;SDS011;30157;55.512;37.764;2022-08-27T05:36:14;21.48;;;17.00;;
44197;SDS011;30157;55.512;37.764;2022-08-27T05:38:44;20.92;;;16.40;;
44197;SDS011;30157;55.512;37.764;2022-08-27T05:41:13;20.98;;;16.50;;
44197;SDS011;30157;55.512;37.764;2022-08-27T05:43:42;24.52;;;18.25;;
44197;SDS011;30157;55.512;37.764;2022-08-27T05:46:10;22.85;;;18.05;;
44197;SDS011;30157;55.512;37.764;2022-08-27T05:48:39;23.83;;;18.55;;
44197;SDS011;30157;55.512;37.764;2022-08-27T05:51:10;25.08;;;19.77;;
44197;SDS011;30157;55.512;37.764;2022-08-27T05:53:41;24.52;;;19.33;;
44197;SDS011;30157;55.512;37.764;2022-08-27T05:56:12;24.23;;;19.42;;
44197;SDS011;30157;55.512;37.764;2022-08-27T05:58:39;24.65;;;19.13;;
44197;SDS011;30157;55.512;37.764;2022-08-27T06:01:23;21.35;;;17.83;;
44197;SDS011;30157;55.512;37.764;2022-08-27T06:03:50;23.45;;;18.73;;
44197;SDS011;30157;55.512;37.764;2022-08-27T06:06:17;24.85;;;20.17;;
44197;SDS011;30157;55.512;37.764;2022-08-27T06:08:43;23.40;;;19.33;;
44197;SDS011;30157;55.512;37.764;2022-08-27T06:11:09;25.70;;;20.30;;
44197;SDS011;30157;55.512;37.764;2022-08-27T06:13:36;25.98;;;19.70;;
44197;SDS011;30157;55.512;37.764;2022-08-27T06:16:03;32.35;;;21.38;;
44197;SDS011;30157;55.512;37.764;2022-08-27T06:18:31;27.70;;;21.00;;
44197;SDS011;30157;55.512;37.764;2022-08-27T06:20:57;30.42;;;23.25;;
44197;SDS011;30157;55.512;37.764;2022-08-27T06:23:23;29.25;;;21.38;;
44197;SDS011;30157;55.512;37.764;2022-08-27T06:25:50;30.38;;;21.65;;
44197;SDS011;30157;55.512;37.764;2022-08-27T06:28:16;28.15;;;20.88;;
44197;SDS011;30157;55.512;37.764;2022-08-27T06:30:45;27.08;;;20.00;;
44197;SDS011;30157;55.512;37.764;2022-08-27T06:33:11;25.52;;;18.77;;
44197;SDS011;30157;55.512;37.764;2022-08-27T06:35:37;24.30;;;19.63;;
44197;SDS011;30157;55.512;37.764;2022-08-27T06:38:03;23.75;;;18.88;;
44197;SDS011;30157;55.512;37.764;2022-08-27T06:40:29;22.77;;;17.70;;
44197;SDS011;30157;55.512;37.764;2022-08-27T06:42:54;20.08;;;16.67;;
44197;SDS011;30157;55.512;37.764;2022-08-27T06:45:20;19.17;;;15.38;;
44197;SDS011;30157;55.512;37.764;2022-08-27T06:47:46;19.35;;;16.08;;
44197;SDS011;30157;55.512;37.764;2022-08-27T06:50:12;20.10;;;16.27;;
44197;SDS011;30157;55.512;37.764;2022-08-27T06:52:38;20.55;;;15.48;;
44197;SDS011;30157;55.512;37.764;2022-08-27T06:55:04;18.65;;;16.55;;
44197;SDS011;30157;55.512;37.764;2022-08-27T06:57:31;22.40;;;16.63;;
44197;SDS011;30157;55.512;37.764;2022-08-27T06:59:57;19.55;;;15.75;;
44197;SDS011;30157;55.512;37.764;2022-08-27T07:02:22;18.48;;;16.35;;
44197;SDS011;30157;55.512;37.764;2022-08-27T07:04:50;22.35;;;16.08;;
44197;SDS011;30157;55.512;37.764;2022-08-27T07:07:17;19.25;;;15.30;;
44197;SDS011;30157;55.512;37.764;2022-08-27T07:09:43;16.75;;;14.27;;
44197;SDS011;30157;55.512;37.764;2022-08-27T07:12:09;21.33;;;17.02;;
44197;SDS011;30157;55.512;37.764;2022-08-27T07:14:35;19.95;;;16.25;;
44197;SDS011;30157;55.512;37.764;2022-08-27T07:17:01;21.95;;;16.50;;
44197;SDS011;30157;55.512;37.764;2022-08-27T07:19:27;23.48;;;18.15;;
44197;SDS011;30157;55.512;37.764;2022-08-27T07:21:54;23.23;;;18.60;;
44197;SDS011;30157;55.512;37.764;2022-08-27T07:24:23;22.20;;;17.45;;
44197;SDS011;30157;55.512;37.764;2022-08-27T07:26:49;19.67;;;17.13;;
44197;SDS011;30157;55.512;37.764;2022-08-27T07:29:15;27.80;;;21.02;;
44197;SDS011;30157;55.512;37.764;2022-08-27T07:31:41;28.70;;;19.95;;
44197;SDS011;30157;55.512;37.764;2022-08-27T07:34:07;25.08;;;20.70;;
44197;SDS011;30157;55.512;37.764;2022-08-27T07:36:34;28.13;;;20.67;;
44197;SDS011;30157;55.512;37.764;2022-08-27T07:39:02;25.52;;;20.88;;
44197;SDS011;30157;55.512;37.764;2022-08-27T07:41:28;28.25;;;22.08;;
44197;SDS011;30157;55.512;37.764;2022-08-27T07:43:55;31.25;;;19.75;;
44197;SDS011;30157;55.512;37.764;2022-08-27T07:46:39;27.83;;;21.13;;
44197;SDS011;30157;55.512;37.764;2022-08-27T07:49:05;29.67;;;22.80;;
44197;SDS011;30157;55.512;37.764;2022-08-27T07:51:31;30.80;;;22.63;;
44197;SDS011;30157;55.512;37.764;2022-08-27T07:53:57;27.98;;;22.33;;
44197;SDS011;30157;55.512;37.764;2022-08-27T07:56:23;33.85;;;25.90;;
44197;SDS011;30157;55.512;37.764;2022-08-27T07:58:49;31.52;;;25.35;;
44197;SDS011;30157;55.512;37.764;2022-08-27T08:01:15;31.17;;;24.88;;
44197;SDS011;30157;55.512;37.764;2022-08-27T08:03:42;35.00;;;26.20;;
44197;SDS011;30157;55.512;37.764;2022-08-27T08:06:11;23.50;;;17.77;;
44197;SDS011;30157;55.512;37.764;2022-08-27T08:08:39;20.75;;;16.33;;
44197;SDS011;30157;55.512;37.764;2022-08-27T08:11:06;18.73;;;14.65;;
44197;SDS011;30157;55.512;37.764;2022-08-27T08:13:33;20.30;;;14.88;;
44197;SDS011;30157;55.512;37.764;2022-08-27T08:16:04;16.88;;;12.85;;
44197;SDS011;30157;55.512;37.764;2022-08-27T08:18:30;16.95;;;13.27;;
44197;SDS011;30157;55.512;37.764;2022-08-27T08:21:03;17.38;;;13.88;;
44197;SDS011;30157;55.512;37.764;2022-08-27T08:23:33;14.57;;;11.70;;
44197;SDS011;30157;55.512;37.764;2022-08-27T08:25:59;15.05;;;12.23;;
44197;SDS011;30157;55.512;37.764;2022-08-27T08:28:26;14.48;;;11.73;;
44197;SDS011;30157;55.512;37.764;2022-08-27T08:30:54;15.95;;;12.27;;
44197;SDS011;30157;55.512;37.764;2022-08-27T08:33:21;12.82;;;10.70;;
44197;SDS011;30157;55.512;37.764;2022-08-27T08:35:47;11.75;;;10.00;;
44197;SDS011;30157;55.512;37.764;2022-08-27T08:38:14;10.85;;;9.68;;
44197;SDS011;30157;55.512;37.764;2022-08-27T08:40:42;11.45;;;10.18;;
44197;SDS011;30157;55.512;37.764;2022-08-27T08:43:56;10.90;;;9.23;;
44197;SDS011;30157;55.512;37.764;2022-08-27T08:48:32;11.60;;;9.60;;
44197;SDS011;30157;55.512;37.764;2022-08-27T08:53:40;11.77;;;9.07;;
44197;SDS011;30157;55.512;37.764;2022-08-27T08:56:26;11.73;;;9.00;;
44197;SDS011;30157;55.512;37.764;2022-08-27T09:01:32;9.70;;;8.10;;
44197;SDS011;30157;55.512;37.764;2022-08-27T09:04:01;10.73;;;8.25;;
44197;SDS011;30157;55.512;37.764;2022-08-27T09:09:20;9.32;;;8.13;;
44197;SDS011;30157;55.512;37.764;2022-08-27T09:11:57;9.00;;;7.32;;
44197;SDS011;30157;55.512;37.764;2022-08-27T09:17:21;9.70;;;8.00;;
44197;SDS011;30157;55.512;37.764;2022-08-27T09:19:47;9.80;;;8.45;;
44197;SDS011;30157;55.512;37.764;2022-08-27T09:25:24;14.35;;;11.73;;
44197;SDS011;30157;55.512;37.764;2022-08-27T09:27:57;12.43;;;10.95;;
44197;SDS011;30157;55.512;37.764;2022-08-27T09:30:30;15.30;;;11.85;;
44197;SDS011;30157;55.512;37.764;2022-08-27T09:33:05;14.77;;;11.80;;
44197;SDS011;30157;55.512;37.764;2022-08-27T09:35:34;12.68;;;10.93;;
44197;SDS011;30157;55.512;37.764;2022-08-27T09:38:05;11.88;;;10.25;;
44197;SDS011;30157;55.512;37.764;2022-08-27T09:40:37;14.05;;;11.43;;
44197;SDS011;30157;55.512;37.764;2022-08-27T09:45:45;16.00;;;12.48;;
44197;SDS011;30157;55.512;37.764;2022-08-27T09:48:13;14.88;;;11.18;;
44197;SDS011;30157;55.512;37.764;2022-08-27T09:50:47;13.85;;;10.98;;
44197;SDS011;30157;55.512;37.764;2022-08-27T09:53:22;14.05;;;11.40;;
44197;SDS011;30157;55.512;37.764;2022-08-27T09:56:01;12.40;;;11.10;;
44197;SDS011;30157;55.512;37.764;2022-08-27T09:58:51;13.82;;;11.25;;
44197;SDS011;30157;55.512;37.764;2022-08-27T10:01:31;17.52;;;11.90;;
44197;SDS011;30157;55.512;37.764;2022-08-27T10:04:06;13.65;;;11.32;;
44197;SDS011;30157;55.512;37.764;2022-08-27T10:06:36;15.85;;;12.77;;
44197;SDS011;30157;55.512;37.764;2022-08-27T10:09:19;15.52;;;11.15;;
44197;SDS011;30157;55.512;37.764;2022-08-27T10:15:05;13.70;;;11.57;;
44197;SDS011;30157;55.512;37.764;2022-08-27T10:17:44;13.77;;;11.95;;
44197;SDS011;30157;55.512;37.764;2022-08-27T10:23:25;16.35;;;10.80;;
44197;SDS011;30157;55.512;37.764;2022-08-27T10:31:05;10.23;;;8.82;;
44197;SDS011;30157;55.512;37.764;2022-08-27T10:36:55;12.18;;;9.57;;
44197;SDS011;30157;55.512;37.764;2022-08-27T10:42:26;9.50;;;8.60;;
44197;SDS011;30157;55.512;37.764;2022-08-27T10:45:26;10.52;;;9.27;;
44197;SDS011;30157;55.512;37.764;2022-08-27T10:48:39;12.52;;;8.55;;
44197;SDS011;30157;55.512;37.764;2022-08-27T10:59:01;12.82;;;11.45;;
44197;SDS011;30157;55.512;37.764;2022-08-27T11:01:39;13.75;;;11.20;;
44197;SDS011;30157;55.512;37.764;2022-08-27T11:04:14;13.68;;;10.90;;
44197;SDS011;30157;55.512;37.764;2022-08-27T11:06:50;13.98;;;10.55;;
44197;SDS011;30157;55.512;37.764;2022-08-27T11:11:55;14.02;;;11.85;;
44197;SDS011;30157;55.512;37.764;2022-08-27T11:14:28;12.38;;;11.07;;
44197;SDS011;30157;55.512;37.764;2022-08-27T11:17:00;12.85;;;10.32;;
44197;SDS011;30157;55.512;37.764;2022-08-27T11:19:44;12.52;;;11.07;;
44197;SDS011;30157;55.512;37.764;2022-08-27T11:25:18;12.93;;;10.97;;
44197;SDS011;30157;55.512;37.764;2022-08-27T11:27:52;13.77;;;11.25;;
44197;SDS011;30157;55.512;37.764;2022-08-27T11:44:08;14.50;;;12.10;;
44197;SDS011;30157;55.512;37.764;2022-08-27T11:46:40;14.68;;;11.98;;
44197;SDS011;30157;55.512;37.764;2022-08-27T11:49:29;12.20;;;10.60;;
44197;SDS011;30157;55.512;37.764;2022-08-27T11:52:07;12.30;;;10.25;;
44197;SDS011;30157;55.512;37.764;2022-08-27T11:54:47;13.40;;;11.10;;
44197;SDS011;30157;55.512;37.764;2022-08-27T11:57:25;14.63;;;11.85;;
44197;SDS011;30157;55.512;37.764;2022-08-27T11:59:56;12.27;;;11.05;;
44197;SDS011;30157;55.512;37.764;2022-08-27T12:02:34;14.20;;;10.88;;
44197;SDS011;30157;55.512;37.764;2022-08-27T12:05:06;13.05;;;11.30;;
44197;SDS011;30157;55.512;37.764;2022-08-27T12:07:38;15.00;;;11.15;;
44197;SDS011;30157;55.512;37.764;2022-08-27T12:15:31;14.25;;;12.32;;
44197;SDS011;30157;55.512;37.764;2022-08-27T12:23:41;13.38;;;11.57;;
44197;SDS011;30157;55.512;37.764;2022-08-27T12:34:46;14.38;;;12.43;;
44197;SDS011;30157;55.512;37.764;2022-08-27T12:37:16;15.82;;;12.75;;
44197;SDS011;30157;55.512;37.764;2022-08-27T12:39:50;13.85;;;12.05;;
44197;SDS011;30157;55.512;37.764;2022-08-27T12:42:18;15.18;;;12.32;;
44197;SDS011;30157;55.512;37.764;2022-08-27T12:44:52;16.55;;;13.05;;
44197;SDS011;30157;55.512;37.764;2022-08-27T12:47:20;15.48;;;12.80;;
44197;SDS011;30157;55.512;37.764;2022-08-27T12:49:56;16.55;;;12.00;;
44197;SDS011;30157;55.512;37.764;2022-08-27T12:52:29;14.05;;;12.27;;
44197;SDS011;30157;55.512;37.764;2022-08-27T13:00:13;23.02;;;10.82;;
44197;SDS011;30157;55.512;37.764;2022-08-27T13:05:47;14.60;;;12.00;;
44197;SDS011;30157;55.512;37.764;2022-08-27T13:08:32;14.05;;;11.68;;
44197;SDS011;30157;55.512;37.764;2022-08-27T13:11:09;13.93;;;11.40;;
44197;SDS011;30157;55.512;37.764;2022-08-27T13:13:46;14.00;;;11.30;;
44197;SDS011;30157;55.512;37.764;2022-08-27T13:16:13;15.73;;;11.85;;
44197;SDS011;30157;55.512;37.764;2022-08-27T13:18:41;13.73;;;11.25;;
44197;SDS011;30157;55.512;37.764;2022-08-27T13:21:22;15.90;;;11.35;;
44197;SDS011;30157;55.512;37.764;2022-08-27T13:23:58;15.82;;;12.27;;
44197;SDS011;30157;55.512;37.764;2022-08-27T13:26:30;13.73;;;11.20;;
44197;SDS011;30157;55.512;37.764;2022-08-27T13:28:58;14.95;;;11.52;;
44197;SDS011;30157;55.512;37.764;2022-08-27T13:31:26;13.85;;;11.18;;
44197;SDS011;30157;55.512;37.764;2022-08-27T13:33:53;13.38;;;11.23;;
44197;SDS011;30157;55.512;37.764;2022-08-27T13:39:02;12.75;;;11.20;;
44197;SDS011;30157;55.512;37.764;2022-08-27T13:41:34;13.35;;;10.60;;
44197;SDS011;30157;55.512;37.764;2022-08-27T13:44:08;12.02;;;10.70;;
44197;SDS011;30157;55.512;37.764;2022-08-27T13:46:52;16.65;;;10.23;;
44197;SDS011;30157;55.512;37.764;2022-08-27T13:49:25;12.55;;;9.10;;
44197;SDS011;30157;55.512;37.764;2022-08-27T13:52:27;10.60;;;8.77;;
44197;SDS011;30157;55.512;37.764;2022-08-27T13:55:06;9.90;;;8.90;;
44197;SDS011;30157;55.512;37.764;2022-08-27T13:57:41;11.50;;;9.20;;
44197;SDS011;30157;55.512;37.764;2022-08-27T14:00:09;12.27;;;9.52;;
44197;SDS011;30157;55.512;37.764;2022-08-27T14:02:50;11.77;;;9.00;;
44197;SDS011;30157;55.512;37.764;2022-08-27T14:07:51;10.68;;;8.45;;
44197;SDS011;30157;55.512;37.764;2022-08-27T14:10:40;9.82;;;7.68;;
44197;SDS011;30157;55.512;37.764;2022-08-27T14:13:19;10.07;;;8.27;;
44197;SDS011;30157;55.512;37.764;2022-08-27T14:15:48;11.93;;;8.15;;
44197;SDS011;30157;55.512;37.764;2022-08-27T14:18:31;9.18;;;8.20;;
44197;SDS011;30157;55.512;37.764;2022-08-27T14:21:00;10.88;;;7.97;;
44197;SDS011;30157;55.512;37.764;2022-08-27T14:23:27;11.50;;;8.07;;
44197;SDS011;30157;55.512;37.764;2022-08-27T14:25:55;14.52;;;8.38;;
44197;SDS011;30157;55.512;37.764;2022-08-27T14:28:22;7.82;;;7.03;;
44197;SDS011;30157;55.512;37.764;2022-08-27T14:30:48;11.48;;;7.65;;
44197;SDS011;30157;55.512;37.764;2022-08-27T14:33:14;9.15;;;7.50;;
44197;SDS011;30157;55.512;37.764;2022-08-27T14:35:41;11.10;;;8.57;;
44197;SDS011;30157;55.512;37.764;2022-08-27T14:38:12;10.45;;;7.82;;
44197;SDS011;30157;55.512;37.764;2022-08-27T14:40:41;8.55;;;7.53;;
44197;SDS011;30157;55.512;37.764;2022-08-27T14:43:07;8.93;;;7.45;;
44197;SDS011;30157;55.512;37.764;2022-08-27T14:45:34;9.48;;;7.63;;
44197;SDS011;30157;55.512;37.764;2022-08-27T14:48:03;9.38;;;8.13;;
44197;SDS011;30157;55.512;37.764;2022-08-27T14:50:35;11.45;;;8.23;;
44197;SDS011;30157;55.512;37.764;2022-08-27T14:53:02;9.50;;;7.63;;
44197;SDS011;30157;55.512;37.764;2022-08-27T14:55:28;9.18;;;7.85;;
44197;SDS011;30157;55.512;37.764;2022-08-27T14:57:56;10.63;;;8.10;;
44197;SDS011;30157;55.512;37.764;2022-08-27T15:00:22;11.93;;;8.35;;
44197;SDS011;30157;55.512;37.764;2022-08-27T15:02:48;9.55;;;8.38;;
44197;SDS011;30157;55.512;37.764;2022-08-27T15:05:15;10.77;;;8.52;;
44197;SDS011;30157;55.512;37.764;2022-08-27T15:07:41;10.30;;;8.93;;
44197;SDS011;30157;55.512;37.764;2022-08-27T15:10:07;9.20;;;8.20;;
44197;SDS011;30157;55.512;37.764;2022-08-27T15:12:33;11.43;;;8.82;;
44197;SDS011;30157;55.512;37.764;2022-08-27T15:15:06;12.00;;;9.05;;
44197;SDS011;30157;55.512;37.764;2022-08-27T15:17:33;9.40;;;8.40;;
44197;SDS011;30157;55.512;37.764;2022-08-27T15:20:00;13.20;;;9.38;;
44197;SDS011;30157;55.512;37.764;2022-08-27T15:22:30;11.32;;;9.32;;
44197;SDS011;30157;55.512;37.764;2022-08-27T15:25:00;11.52;;;10.10;;
44197;SDS011;30157;55.512;37.764;2022-08-27T15:27:29;10.18;;;8.77;;
44197;SDS011;30157;55.512;37.764;2022-08-27T15:29:59;11.68;;;9.35;;
44197;SDS011;30157;55.512;37.764;2022-08-27T15:32:29;13.85;;;11.88;;
44197;SDS011;30157;55.512;37.764;2022-08-27T15:34:58;15.15;;;12.20;;
44197;SDS011;30157;55.512;37.764;2022-08-27T15:37:26;12.45;;;10.15;;
44197;SDS011;30157;55.512;37.764;2022-08-27T15:39:52;13.57;;;9.98;;
44197;SDS011;30157;55.512;37.764;2022-08-27T15:42:18;12.20;;;10.70;;
44197;SDS011;30157;55.512;37.764;2022-08-27T15:44:46;15.20;;;11.32;;
44197;SDS011;30157;55.512;37.764;2022-08-27T15:47:14;19.63;;;16.15;;
44197;SDS011;30157;55.512;37.764;2022-08-27T15:49:40;24.90;;;20.15;;
44197;SDS011;30157;55.512;37.764;2022-08-27T15:52:07;19.30;;;16.08;;
44197;SDS011;30157;55.512;37.764;2022-08-27T15:54:34;19.35;;;16.45;;
44197;SDS011;30157;55.512;37.764;2022-08-27T15:57:02;22.77;;;17.23;;
44197;SDS011;30157;55.512;37.764;2022-08-27T15:59:29;22.25;;;18.45;;
44197;SDS011;30157;55.512;37.764;2022-08-27T16:01:55;29.25;;;23.35;;
44197;SDS011;30157;55.512;37.764;2022-08-27T16:04:21;40.13;;;31.35;;